Time;durP1;ratioP1;P1;durP2;ratioP2;P2;SDS_P1;SDS_P2;PMS_P1;PMS_P2;Temp;Humidity;BMP_temperature;BMP_pressure;BME280_temperature;BME280_humidity;BME280_pressure;Samples;Min_cycle;Max_cycle;Signal;HPM_P1;HPM_P2
2023/12/25 00:00:49;;;;;;;11.43;7.07;;;11.60;99.90;;;;;;5053146;28;20487;-64
2023/12/25 00:03:15;;;;;;;8.70;6.72;;;11.60;99.90;;;;;;5052931;28;20053;-65
2023/12/25 00:05:40;;;;;;;8.23;6.45;;;11.50;99.90;;;;;;5053078;28;20025;-64
2023/12/25 00:08:06;;;;;;;10.02;7.20;;;11.50;99.90;;;;;;5052921;28;20021;-65
2023/12/25 00:10:32;;;;;;;8.00;6.68;;;11.50;99.90;;;;;;5053184;28;20100;-65
2023/12/25 00:12:57;;;;;;;8.25;5.97;;;11.50;99.90;;;;;;5052912;28;20059;-65
2023/12/25 00:15:23;;;;;;;9.85;6.75;;;11.50;99.90;;;;;;5053357;28;20432;-65
2023/12/25 00:17:48;;;;;;;8.43;6.28;;;11.50;99.90;;;;;;5052745;28;20017;-65
2023/12/25 00:20:14;;;;;;;7.82;5.53;;;11.50;99.90;;;;;;5053068;28;20032;-65
2023/12/25 00:22:40;;;;;;;7.03;5.63;;;11.50;99.90;;;;;;5052825;28;20040;-65
2023/12/25 00:25:06;;;;;;;6.95;5.63;;;11.50;99.90;;;;;;5053156;28;20045;-65
2023/12/25 00:27:31;;;;;;;5.55;4.70;;;11.50;99.90;;;;;;5052939;28;20364;-65
2023/12/25 00:29:57;;;;;;;7.45;4.57;;;11.50;99.90;;;;;;5052932;28;20104;-65
2023/12/25 00:32:22;;;;;;;4.70;4.22;;;11.50;99.90;;;;;;5052823;28;20021;-65
2023/12/25 00:34:48;;;;;;;5.55;4.32;;;11.40;99.90;;;;;;5053020;28;20103;-65
2023/12/25 00:37:13;;;;;;;5.95;4.57;;;11.40;99.90;;;;;;5052770;28;20082;-65
2023/12/25 00:39:39;;;;;;;5.68;3.75;;;11.40;99.90;;;;;;5052611;28;20112;-65
2023/12/25 00:42:05;;;;;;;5.35;3.70;;;11.40;99.90;;;;;;5052598;28;20070;-66
2023/12/25 00:44:30;;;;;;;5.38;3.70;;;11.40;99.90;;;;;;5052681;28;20025;-65
2023/12/25 00:46:56;;;;;;;3.88;3.45;;;11.40;99.90;;;;;;5053355;28;20043;-66
2023/12/25 00:49:22;;;;;;;4.20;3.80;;;11.40;99.90;;;;;;5054772;28;20063;-65
2023/12/25 00:51:47;;;;;;;6.88;3.95;;;11.40;99.90;;;;;;5056268;28;20087;-66
2023/12/25 00:54:13;;;;;;;4.30;3.50;;;11.40;99.90;;;;;;5055845;28;20024;-65
2023/12/25 00:56:38;;;;;;;6.03;3.47;;;11.40;99.90;;;;;;5055880;28;20029;-66
2023/12/25 00:59:04;;;;;;;4.78;4.18;;;11.40;99.90;;;;;;5056098;28;20041;-65
2023/12/25 01:01:29;;;;;;;4.47;3.80;;;11.40;99.90;;;;;;5056027;28;20044;-65
2023/12/25 01:03:55;;;;;;;4.40;3.63;;;11.40;99.90;;;;;;5056140;28;20024;-65
2023/12/25 01:06:21;;;;;;;6.53;4.80;;;11.40;99.90;;;;;;5055872;28;20098;-65
2023/12/25 01:08:47;;;;;;;7.82;4.95;;;11.40;99.90;;;;;;5055704;28;20033;-65
2023/12/25 01:11:14;;;;;;;7.57;5.72;;;11.50;99.90;;;;;;5055912;28;20029;-65
2023/12/25 01:13:39;;;;;;;7.30;5.72;;;11.50;99.90;;;;;;5055684;28;20036;-65
2023/12/25 01:16:05;;;;;;;6.47;5.13;;;11.50;99.90;;;;;;5055655;28;20033;-65
2023/12/25 01:18:31;;;;;;;8.50;6.47;;;11.50;99.90;;;;;;5055617;28;20029;-66
2023/12/25 01:20:56;;;;;;;5.25;4.75;;;11.50;99.90;;;;;;5055341;28;20491;-66
2023/12/25 01:23:22;;;;;;;6.68;5.28;;;11.50;99.90;;;;;;5055716;28;20033;-65
2023/12/25 01:25:47;;;;;;;5.93;5.32;;;11.50;99.90;;;;;;5055442;28;20104;-64
2023/12/25 01:28:13;;;;;;;8.18;6.25;;;11.50;99.90;;;;;;5055251;28;20482;-64
2023/12/25 01:30:38;;;;;;;7.40;5.63;;;11.50;99.90;;;;;;5055446;28;20029;-64
2023/12/25 01:33:04;;;;;;;13.20;5.97;;;11.40;99.90;;;;;;5055521;28;20036;-64
2023/12/25 01:35:29;;;;;;;7.50;5.53;;;11.50;99.90;;;;;;5055380;28;20033;-64
2023/12/25 01:37:55;;;;;;;8.15;5.35;;;11.40;99.90;;;;;;5055252;28;20025;-65
2023/12/25 01:40:21;;;;;;;7.93;6.38;;;11.50;99.90;;;;;;5054938;28;20070;-65
2023/12/25 01:42:47;;;;;;;8.15;6.38;;;11.40;99.90;;;;;;5055347;28;20041;-65
2023/12/25 01:45:13;;;;;;;8.23;7.32;;;11.50;99.90;;;;;;5035157;28;20431;-66
2023/12/25 01:47:39;;;;;;;11.45;9.15;;;11.50;99.90;;;;;;5035360;28;20026;-65
2023/12/25 01:50:06;;;;;;;14.23;10.15;;;11.40;99.90;;;;;;5035280;28;20017;-65
2023/12/25 01:52:31;;;;;;;12.25;10.00;;;11.50;99.90;;;;;;5035205;28;20116;-65
2023/12/25 01:54:59;;;;;;;14.15;10.82;;;11.50;99.90;;;;;;5034940;28;20052;-66
2023/12/25 01:57:26;;;;;;;14.52;10.20;;;11.50;99.90;;;;;;5035153;28;20113;-65
2023/12/25 01:59:51;;;;;;;13.07;10.63;;;11.50;99.90;;;;;;5035170;28;20399;-65
2023/12/25 02:02:20;;;;;;;12.27;9.35;;;11.50;99.90;;;;;;5034432;28;20028;-65
2023/12/25 02:04:46;;;;;;;12.63;9.32;;;11.50;99.90;;;;;;5034838;28;20052;-65
2023/12/25 02:07:14;;;;;;;13.00;8.38;;;11.50;99.90;;;;;;5034873;28;20036;-65
2023/12/25 02:09:39;;;;;;;11.38;8.73;;;11.40;99.90;;;;;;5034582;28;20543;-66
2023/12/25 02:12:05;;;;;;;8.85;6.50;;;11.40;99.90;;;;;;5034807;28;20116;-66
2023/12/25 02:14:31;;;;;;;6.72;5.63;;;11.40;99.90;;;;;;5034891;28;20049;-66
2023/12/25 02:16:57;;;;;;;6.45;5.63;;;11.40;99.90;;;;;;5034875;28;20427;-65
2023/12/25 02:22:01;;;;;;;7.13;5.13;;;11.40;99.90;;;;;;5070667;28;20383;-65
2023/12/25 02:24:30;;;;;;;7.80;5.90;;;11.40;99.90;;;;;;5070581;28;20079;-64
2023/12/25 02:26:56;;;;;;;7.13;5.97;;;11.40;99.90;;;;;;5069140;28;20029;-64
2023/12/25 02:29:22;;;;;;;6.65;4.65;;;11.40;99.90;;;;;;5070378;28;20035;-66
2023/12/25 02:31:48;;;;;;;4.85;3.97;;;11.50;99.90;;;;;;5070468;28;20032;-64
2023/12/25 02:34:14;;;;;;;8.95;4.65;;;11.50;99.90;;;;;;5070247;28;20021;-65
2023/12/25 02:36:40;;;;;;;6.47;5.22;;;11.50;99.90;;;;;;5070448;28;20029;-65
2023/12/25 02:39:05;;;;;;;7.25;6.30;;;11.50;99.90;;;;;;5070284;28;20032;-64
2023/12/25 02:41:31;;;;;;;9.05;6.63;;;11.50;99.90;;;;;;5070104;28;20033;-65
2023/12/25 02:43:56;;;;;;;10.45;8.07;;;11.50;99.90;;;;;;5070267;28;20028;-65
2023/12/25 02:46:22;;;;;;;8.57;7.38;;;11.50;99.90;;;;;;5069770;28;20028;-65
2023/12/25 02:48:47;;;;;;;10.98;9.05;;;11.50;99.90;;;;;;5069981;28;20020;-64
2023/12/25 02:51:13;;;;;;;12.65;9.93;;;11.60;99.90;;;;;;5069694;28;20033;-65
2023/12/25 02:53:38;;;;;;;16.33;11.70;;;11.50;99.90;;;;;;5069704;28;20033;-64
2023/12/25 02:56:04;;;;;;;16.38;11.55;;;11.50;99.90;;;;;;5069950;28;20112;-64
2023/12/25 02:58:30;;;;;;;16.17;11.15;;;11.50;99.90;;;;;;5069947;28;20108;-65
2023/12/25 03:00:55;;;;;;;13.02;10.35;;;11.60;99.90;;;;;;5069755;28;20489;-64
2023/12/25 03:03:21;;;;;;;13.07;10.30;;;11.60;99.90;;;;;;5069766;28;20120;-64
2023/12/25 03:05:46;;;;;;;13.35;10.27;;;11.60;99.90;;;;;;5069737;28;20120;-64
2023/12/25 03:08:12;;;;;;;13.80;10.45;;;11.60;99.90;;;;;;5049741;28;20025;-64
2023/12/25 03:10:37;;;;;;;13.80;11.00;;;11.60;99.90;;;;;;5049602;28;20479;-64
2023/12/25 03:13:03;;;;;;;12.07;10.48;;;11.60;99.90;;;;;;5049677;28;20033;-64
2023/12/25 03:15:28;;;;;;;11.70;10.05;;;11.70;99.90;;;;;;5049626;28;20030;-64
2023/12/25 03:17:54;;;;;;;14.20;10.50;;;11.70;99.90;;;;;;5049783;28;20029;-65
2023/12/25 03:20:22;;;;;;;12.70;10.68;;;11.70;99.90;;;;;;5049131;28;20509;-64
2023/12/25 03:22:47;;;;;;;13.23;10.68;;;11.70;99.90;;;;;;5048179;28;20108;-65
2023/12/25 03:25:13;;;;;;;12.57;9.30;;;11.70;99.90;;;;;;5049444;28;20079;-64
2023/12/25 03:27:38;;;;;;;9.68;7.47;;;11.70;99.90;;;;;;5049580;28;20539;-64
2023/12/25 03:30:04;;;;;;;9.80;6.38;;;11.70;99.90;;;;;;5049276;28;20052;-65
2023/12/25 03:32:30;;;;;;;8.50;6.95;;;11.80;99.90;;;;;;5040786;28;20029;-64
2023/12/25 03:34:56;;;;;;;8.50;5.80;;;11.80;99.90;;;;;;5035935;28;20494;-64
2023/12/25 03:37:21;;;;;;;5.38;4.68;;;11.80;99.90;;;;;;5036076;28;20095;-64
2023/12/25 03:39:47;;;;;;;6.13;4.72;;;11.80;99.90;;;;;;5035988;28;20051;-65
2023/12/25 03:42:12;;;;;;;5.32;4.72;;;11.80;99.90;;;;;;5035777;28;20480;-65
2023/12/25 03:44:38;;;;;;;6.07;4.60;;;11.80;99.90;;;;;;5035928;28;20028;-66
2023/12/25 03:47:04;;;;;;;4.82;4.32;;;11.80;99.90;;;;;;5035935;28;20025;-66
2023/12/25 03:49:29;;;;;;;5.70;4.68;;;11.80;99.90;;;;;;5035521;28;20071;-65
2023/12/25 03:51:56;;;;;;;5.93;4.65;;;11.80;99.90;;;;;;5035674;28;20033;-64
2023/12/25 03:54:22;;;;;;;7.53;5.30;;;11.80;99.90;;;;;;5035596;28;20026;-65
2023/12/25 03:56:47;;;;;;;7.30;5.95;;;11.80;99.90;;;;;;5035529;28;20037;-65
2023/12/25 03:59:13;;;;;;;8.60;6.43;;;11.80;99.90;;;;;;5035476;28;20160;-65
2023/12/25 04:01:38;;;;;;;9.70;6.63;;;11.80;99.90;;;;;;5035435;28;20502;-67
2023/12/25 04:04:05;;;;;;;7.97;6.70;;;11.80;99.90;;;;;;5035651;28;20101;-66
2023/12/25 04:06:30;;;;;;;7.65;6.13;;;11.80;99.90;;;;;;5035117;28;20060;-67
2023/12/25 04:08:56;;;;;;;7.25;5.82;;;11.80;99.90;;;;;;5035588;28;20026;-66
2023/12/25 04:11:22;;;;;;;7.80;6.55;;;11.80;99.90;;;;;;5035390;28;20107;-66
2023/12/25 04:13:53;;;;;;;10.10;7.60;;;11.80;99.90;;;;;;5035299;28;20438;-66
2023/12/25 04:16:20;;;;;;;7.72;6.72;;;11.80;99.90;;;;;;5035255;28;20037;-66
2023/12/25 04:18:46;;;;;;;6.68;5.95;;;11.80;99.90;;;;;;5035281;28;20034;-66
2023/12/25 04:21:30;;;;;;;7.90;6.75;;;11.70;99.90;;;;;;5034834;28;20056;-66
2023/12/25 04:23:56;;;;;;;8.52;6.63;;;11.70;99.90;;;;;;5034909;28;20022;-66
2023/12/25 04:26:23;;;;;;;8.98;7.18;;;11.60;99.90;;;;;;5035060;28;20040;-66
2023/12/25 04:28:49;;;;;;;8.95;7.57;;;11.70;99.90;;;;;;5034894;28;20414;-66
2023/12/25 04:31:15;;;;;;;8.65;7.50;;;11.70;99.90;;;;;;5035052;28;20033;-66
2023/12/25 04:33:41;;;;;;;10.00;7.35;;;11.80;99.90;;;;;;5034851;28;20022;-64
2023/12/25 04:36:07;;;;;;;11.25;8.43;;;11.80;99.90;;;;;;5034818;28;20038;-65
2023/12/25 04:38:32;;;;;;;9.57;8.05;;;11.80;99.90;;;;;;5034843;28;20503;-65
2023/12/25 04:40:59;;;;;;;8.27;7.05;;;11.90;99.90;;;;;;5034764;28;20131;-65
2023/12/25 04:43:24;;;;;;;8.00;7.20;;;11.90;99.90;;;;;;5033757;28;20132;-64
2023/12/25 04:45:50;;;;;;;8.93;7.35;;;11.90;99.90;;;;;;5034294;28;20061;-64
2023/12/25 04:48:15;;;;;;;10.57;7.15;;;11.90;99.90;;;;;;5034527;28;20023;-65
2023/12/25 04:50:43;;;;;;;6.50;5.90;;;11.90;99.90;;;;;;5034775;28;20029;-65
2023/12/25 04:53:09;;;;;;;7.00;5.72;;;11.90;99.90;;;;;;5033352;28;20033;-66
2023/12/25 04:55:34;;;;;;;8.10;5.22;;;11.90;99.90;;;;;;5034490;28;20056;-66
2023/12/25 04:58:00;;;;;;;7.20;5.30;;;11.90;99.90;;;;;;5034599;28;20029;-66
2023/12/25 05:00:25;;;;;;;8.32;5.32;;;12.00;99.90;;;;;;5034516;28;20033;-65
2023/12/25 05:02:51;;;;;;;7.15;5.95;;;12.00;99.90;;;;;;5034258;28;20025;-65
2023/12/25 05:05:16;;;;;;;6.18;5.53;;;12.00;99.90;;;;;;5033994;28;20105;-65
2023/12/25 05:07:42;;;;;;;6.80;5.85;;;12.00;99.90;;;;;;5034291;28;20060;-65
2023/12/25 05:10:08;;;;;;;6.03;5.43;;;12.00;99.90;;;;;;5034162;28;20030;-65
2023/12/25 05:12:33;;;;;;;6.53;5.22;;;12.00;99.90;;;;;;5034129;28;20075;-65
2023/12/25 05:14:59;;;;;;;6.40;5.32;;;12.00;99.90;;;;;;5034142;28;20117;-65
2023/12/25 05:17:25;;;;;;;6.13;5.40;;;12.00;99.90;;;;;;5034109;28;20084;-65
2023/12/25 05:19:51;;;;;;;7.50;5.28;;;12.10;99.90;;;;;;5033653;28;20037;-65
2023/12/25 05:22:16;;;;;;;5.50;5.00;;;12.10;99.90;;;;;;5033848;28;20032;-65
2023/12/25 05:24:42;;;;;;;6.38;5.18;;;12.10;99.90;;;;;;5034043;28;20103;-65
2023/12/25 05:27:08;;;;;;;5.70;5.10;;;12.10;99.90;;;;;;5034080;28;20033;-67
2023/12/25 05:29:34;;;;;;;6.28;4.70;;;12.20;99.90;;;;;;5034048;28;20026;-67
2023/12/25 05:31:59;;;;;;;6.10;5.18;;;12.20;99.90;;;;;;5034091;28;20392;-67
2023/12/25 05:34:27;;;;;;;6.05;4.97;;;12.10;99.90;;;;;;5033799;28;20033;-67
2023/12/25 05:36:53;;;;;;;5.80;5.20;;;12.10;99.90;;;;;;5033660;28;20026;-67
2023/12/25 05:39:19;;;;;;;5.63;5.13;;;12.10;99.90;;;;;;5033796;28;20026;-67
2023/12/25 05:41:44;;;;;;;6.93;5.75;;;12.00;99.90;;;;;;5033518;28;20025;-67
2023/12/25 05:44:10;;;;;;;6.38;5.78;;;12.00;99.90;;;;;;5033843;28;20491;-67
2023/12/25 05:46:36;;;;;;;6.97;6.28;;;12.00;99.90;;;;;;5033722;28;20037;-67
2023/12/25 05:49:03;;;;;;;8.90;7.15;;;11.90;99.90;;;;;;5033654;28;20466;-67
2023/12/25 05:51:29;;;;;;;7.20;6.50;;;11.90;99.90;;;;;;5033780;28;20107;-67
2023/12/25 05:53:55;;;;;;;9.52;7.68;;;11.80;99.90;;;;;;5033512;28;20025;-67
2023/12/25 05:56:21;;;;;;;9.05;7.78;;;11.80;99.90;;;;;;5033334;28;20395;-66
2023/12/25 05:58:46;;;;;;;9.57;7.55;;;11.70;99.90;;;;;;5033485;28;20037;-66
2023/12/25 06:01:13;;;;;;;9.02;7.85;;;11.70;99.90;;;;;;5033226;28;20402;-66
2023/12/25 06:03:39;;;;;;;10.85;8.85;;;11.70;99.90;;;;;;5033511;28;20475;-67
2023/12/25 06:06:05;;;;;;;9.93;8.80;;;11.60;99.90;;;;;;5033484;28;20057;-66
2023/12/25 06:08:30;;;;;;;12.10;10.20;;;11.60;99.90;;;;;;5033555;28;20052;-66
2023/12/25 06:10:57;;;;;;;12.50;9.95;;;11.60;99.90;;;;;;5033315;28;20030;-67
2023/12/25 06:13:23;;;;;;;12.63;10.02;;;11.50;99.90;;;;;;5033142;28;20029;-66
2023/12/25 06:15:48;;;;;;;10.35;6.63;;;11.50;99.90;;;;;;5033401;28;20112;-66
2023/12/25 06:18:14;;;;;;;10.98;7.40;;;11.40;99.90;;;;;;5033290;28;20021;-66
2023/12/25 06:20:40;;;;;;;10.27;8.70;;;11.40;99.90;;;;;;5032967;28;20045;-65
2023/12/25 06:23:06;;;;;;;10.80;7.72;;;11.40;99.90;;;;;;5033330;28;20112;-65
2023/12/25 06:25:32;;;;;;;10.68;8.07;;;11.40;99.90;;;;;;5033298;28;20030;-65
2023/12/25 06:27:57;;;;;;;5.70;3.92;;;11.40;99.90;;;;;;5032862;28;20068;-65
2023/12/25 06:30:23;;;;;;;4.70;3.38;;;11.30;99.90;;;;;;5032959;28;20040;-65
2023/12/25 06:32:48;;;;;;;5.40;2.75;;;11.20;99.90;;;;;;5033035;28;20536;-65
2023/12/25 06:35:14;;;;;;;4.75;2.50;;;11.10;99.90;;;;;;5033187;28;20491;-64
2023/12/25 06:37:40;;;;;;;5.63;2.42;;;11.20;99.90;;;;;;5031534;28;20041;-65
2023/12/25 06:40:06;;;;;;;2.72;2.00;;;11.10;99.90;;;;;;5033003;28;20105;-65
2023/12/25 06:42:31;;;;;;;5.22;4.10;;;11.10;99.90;;;;;;5032675;28;20017;-66
2023/12/25 06:44:57;;;;;;;7.47;6.55;;;11.20;99.90;;;;;;5033147;28;20026;-65
2023/12/25 06:47:22;;;;;;;8.43;6.90;;;11.30;99.90;;;;;;5032877;28;20030;-64
2023/12/25 06:49:48;;;;;;;8.75;6.68;;;11.40;99.90;;;;;;5032652;28;20025;-64
2023/12/25 06:52:14;;;;;;;5.38;4.75;;;11.50;99.90;;;;;;5032904;28;20034;-65
2023/12/25 06:54:39;;;;;;;4.28;3.78;;;11.50;99.90;;;;;;5032880;28;20033;-65
2023/12/25 06:57:05;;;;;;;5.13;3.80;;;11.50;99.90;;;;;;5033000;28;20104;-65
2023/12/25 06:59:30;;;;;;;4.60;4.20;;;11.50;99.90;;;;;;5032703;28;20018;-65
2023/12/25 07:01:56;;;;;;;4.72;4.07;;;11.50;99.90;;;;;;5032556;28;20026;-64
2023/12/25 07:04:22;;;;;;;5.10;4.60;;;11.40;99.90;;;;;;5032936;28;20037;-65
2023/12/25 07:06:48;;;;;;;10.48;5.22;;;11.40;99.90;;;;;;5033209;28;20045;-65
2023/12/25 07:09:14;;;;;;;8.52;6.13;;;11.40;99.90;;;;;;5036745;28;20033;-65
2023/12/25 07:11:41;;;;;;;11.75;6.82;;;11.30;99.90;;;;;;5036672;28;20547;-65
2023/12/25 07:14:08;;;;;;;9.95;7.18;;;11.30;99.90;;;;;;5036213;28;20030;-65
2023/12/25 07:16:33;;;;;;;9.48;6.85;;;11.30;99.90;;;;;;5036415;28;20551;-65
2023/12/25 07:18:59;;;;;;;12.02;8.75;;;11.30;99.90;;;;;;5036285;28;20153;-65
2023/12/25 07:21:25;;;;;;;15.88;11.13;;;11.30;99.90;;;;;;5035769;28;20061;-65
2023/12/25 07:23:52;;;;;;;20.00;13.10;;;11.30;99.90;;;;;;5036172;28;20032;-65
2023/12/25 07:26:18;;;;;;;21.50;14.57;;;11.30;99.90;;;;;;5036165;28;20024;-64
2023/12/25 07:28:44;;;;;;;23.92;15.55;;;11.30;99.90;;;;;;5036122;28;20108;-65
2023/12/25 07:31:10;;;;;;;25.88;16.63;;;11.20;99.90;;;;;;5036202;28;20044;-65
2023/12/25 07:33:36;;;;;;;26.95;18.40;;;11.20;99.90;;;;;;5035892;28;20482;-65
2023/12/25 07:36:04;;;;;;;29.00;18.05;;;11.20;99.90;;;;;;5036253;28;20132;-65
2023/12/25 07:38:29;;;;;;;21.83;15.05;;;11.20;99.90;;;;;;5035994;28;20021;-65
2023/12/25 07:40:57;;;;;;;16.88;12.35;;;11.20;99.90;;;;;;5035804;28;20087;-65
2023/12/25 07:43:24;;;;;;;19.10;12.63;;;11.20;99.90;;;;;;5035593;28;20057;-65
2023/12/25 07:45:50;;;;;;;21.08;14.35;;;11.20;99.90;;;;;;5036020;28;20566;-65
2023/12/25 07:48:16;;;;;;;21.35;13.98;;;11.20;99.90;;;;;;5035767;28;20105;-66
2023/12/25 07:50:42;;;;;;;18.83;13.00;;;11.20;99.90;;;;;;5035694;28;20507;-66
2023/12/25 07:53:08;;;;;;;19.65;12.38;;;11.20;99.90;;;;;;5035658;28;20059;-66
2023/12/25 07:55:36;;;;;;;14.75;9.07;;;11.20;99.90;;;;;;5035694;28;20029;-66
2023/12/25 07:58:02;;;;;;;14.75;9.35;;;11.20;99.90;;;;;;5035808;28;20035;-66
2023/12/25 08:00:28;;;;;;;11.27;7.68;;;11.20;99.90;;;;;;5035409;28;20029;-66
2023/12/25 08:02:54;;;;;;;9.57;7.28;;;11.20;99.90;;;;;;5035441;28;20030;-66
2023/12/25 08:05:20;;;;;;;8.63;5.85;;;11.20;99.90;;;;;;5035127;28;20024;-66
2023/12/25 08:07:45;;;;;;;7.47;5.55;;;11.20;99.90;;;;;;5035368;28;20101;-67
2023/12/25 08:10:11;;;;;;;5.95;4.53;;;11.20;99.90;;;;;;5035542;28;20083;-66
2023/12/25 08:12:38;;;;;;;10.65;4.28;;;11.10;99.90;;;;;;5035399;28;20112;-66
2023/12/25 08:15:03;;;;;;;3.47;3.17;;;11.10;99.90;;;;;;5035099;28;20033;-66
2023/12/25 08:17:29;;;;;;;2.78;2.20;;;11.10;99.90;;;;;;5035015;28;20502;-66
2023/12/25 08:19:54;;;;;;;3.30;1.98;;;11.10;99.90;;;;;;5034811;28;20136;-66
2023/12/25 08:22:20;;;;;;;2.28;1.92;;;11.10;99.90;;;;;;5035119;28;20029;-66
2023/12/25 08:24:49;;;;;;;2.33;1.95;;;11.00;99.90;;;;;;5034914;28;20036;-66
2023/12/25 08:27:15;;;;;;;2.78;2.10;;;11.00;99.90;;;;;;5035235;28;20025;-66
2023/12/25 08:29:42;;;;;;;4.72;2.08;;;11.00;99.90;;;;;;5035162;28;20542;-66
2023/12/25 08:32:07;;;;;;;3.55;2.28;;;11.00;99.90;;;;;;5035150;28;20029;-66
2023/12/25 08:34:37;;;;;;;2.70;1.95;;;11.00;99.90;;;;;;5035113;28;20406;-67
2023/12/25 08:37:03;;;;;;;4.28;2.08;;;11.00;99.90;;;;;;5034717;28;20025;-66
2023/12/25 08:39:29;;;;;;;3.58;1.73;;;10.90;99.90;;;;;;5034975;28;20099;-67
2023/12/25 08:41:56;;;;;;;5.32;1.40;;;10.80;99.90;;;;;;5034392;28;20052;-66
2023/12/25 08:44:23;;;;;;;2.42;1.33;;;10.70;99.90;;;;;;5034837;28;20036;-66
2023/12/25 08:46:48;;;;;;;4.75;1.15;;;10.60;99.90;;;;;;5034643;28;20017;-66
2023/12/25 08:49:14;;;;;;;3.58;1.08;;;10.50;99.90;;;;;;5034747;28;20357;-66
2023/12/25 08:51:40;;;;;;;2.03;1.10;;;10.40;99.90;;;;;;5034642;28;20021;-66
2023/12/25 08:54:07;;;;;;;3.08;1.27;;;10.40;99.90;;;;;;5034187;28;20021;-66
2023/12/25 08:56:32;;;;;;;4.97;1.67;;;10.40;99.90;;;;;;5034230;28;20030;-66
2023/12/25 08:59:00;;;;;;;3.38;1.63;;;10.40;99.90;;;;;;5034304;28;20059;-66
2023/12/25 09:01:26;;;;;;;3.10;1.40;;;10.40;99.90;;;;;;5034242;28;20104;-66
2023/12/25 09:03:52;;;;;;;3.03;1.48;;;10.30;99.90;;;;;;5034286;28;20021;-66
2023/12/25 09:06:17;;;;;;;2.45;1.50;;;10.40;99.90;;;;;;5034277;28;20030;-67
2023/12/25 09:08:43;;;;;;;2.55;1.25;;;10.40;99.90;;;;;;5034296;28;20033;-66
2023/12/25 09:11:09;;;;;;;1.50;1.40;;;10.30;99.90;;;;;;5034352;28;20033;-66
2023/12/25 09:13:35;;;;;;;3.75;1.38;;;10.30;99.90;;;;;;5034233;28;20104;-67
2023/12/25 09:16:01;;;;;;;3.30;1.73;;;10.30;99.90;;;;;;5034312;28;20108;-67
2023/12/25 09:18:28;;;;;;;2.70;1.85;;;10.30;99.90;;;;;;5034114;28;20041;-67
2023/12/25 09:20:54;;;;;;;4.90;1.50;;;10.30;99.90;;;;;;5033702;28;20055;-66
2023/12/25 09:23:20;;;;;;;4.95;1.63;;;10.20;99.90;;;;;;5033941;28;20386;-66
2023/12/25 09:25:45;;;;;;;4.38;1.70;;;10.20;99.90;;;;;;5033907;28;20025;-66
2023/12/25 09:28:11;;;;;;;2.35;1.42;;;10.20;99.90;;;;;;5034161;28;20105;-66
2023/12/25 09:30:38;;;;;;;3.42;1.85;;;10.20;99.90;;;;;;5033328;28;20030;-66
2023/12/25 09:33:03;;;;;;;4.07;1.40;;;10.30;99.90;;;;;;5033921;28;20398;-66
2023/12/25 09:35:32;;;;;;;3.05;1.40;;;10.20;99.90;;;;;;5033942;28;20108;-66
2023/12/25 09:37:58;;;;;;;4.53;1.80;;;10.20;99.90;;;;;;5033452;28;20029;-66
2023/12/25 09:40:24;;;;;;;4.20;1.60;;;10.20;99.90;;;;;;5033574;28;20438;-66
2023/12/25 09:42:50;;;;;;;3.97;2.05;;;10.20;99.90;;;;;;5033874;28;20025;-66
2023/12/25 09:45:17;;;;;;;2.70;1.75;;;10.20;99.90;;;;;;5033364;28;20551;-66
2023/12/25 09:47:45;;;;;;;6.78;2.50;;;10.20;99.90;;;;;;5033693;28;20487;-66
2023/12/25 09:50:11;;;;;;;6.80;1.85;;;10.20;99.90;;;;;;5033678;28;20084;-66
2023/12/25 09:52:37;;;;;;;3.72;2.22;;;10.20;99.90;;;;;;5033348;28;20442;-66
2023/12/25 09:55:03;;;;;;;4.82;1.80;;;10.20;99.90;;;;;;5033659;28;20120;-66
2023/12/25 09:57:29;;;;;;;4.38;2.20;;;10.20;99.90;;;;;;5033678;28;20399;-66
2023/12/25 09:59:56;;;;;;;6.22;1.80;;;10.20;99.90;;;;;;5033076;28;20035;-66
2023/12/25 10:02:23;;;;;;;4.47;1.80;;;10.20;99.90;;;;;;5033140;28;20026;-66
2023/12/25 10:04:49;;;;;;;4.30;1.80;;;10.20;99.90;;;;;;5033002;28;20104;-66
2023/12/25 10:07:20;;;;;;;2.80;1.95;;;10.20;99.90;;;;;;5033458;28;20025;-66
2023/12/25 10:09:45;;;;;;;4.10;1.85;;;10.20;99.90;;;;;;5033411;28;20494;-66
2023/12/25 10:12:11;;;;;;;4.28;2.20;;;10.20;99.90;;;;;;5033423;28;20030;-66
2023/12/25 10:14:38;;;;;;;3.47;2.08;;;10.20;99.90;;;;;;5033370;28;20383;-66
2023/12/25 10:17:04;;;;;;;5.35;2.25;;;10.20;99.90;;;;;;5033327;28;20116;-66
2023/12/25 10:19:30;;;;;;;7.93;2.33;;;10.20;99.90;;;;;;5033431;28;20451;-66
2023/12/25 10:21:55;;;;;;;6.05;2.20;;;10.10;99.90;;;;;;5032757;28;20136;-65
2023/12/25 10:24:26;;;;;;;5.75;2.40;;;10.20;99.90;;;;;;5032863;28;20021;-65
2023/12/25 10:26:52;;;;;;;4.70;2.13;;;10.20;99.90;;;;;;5033213;28;20075;-66
2023/12/25 10:29:17;;;;;;;6.97;2.50;;;10.20;99.90;;;;;;5032972;28;20030;-66
2023/12/25 10:31:44;;;;;;;5.93;2.05;;;10.30;99.90;;;;;;5032778;28;20025;-65
2023/12/25 10:34:10;;;;;;;4.03;2.25;;;10.30;99.90;;;;;;5033083;28;20053;-65
2023/12/25 10:36:37;;;;;;;10.50;2.70;;;10.30;99.90;;;;;;5032746;28;20080;-66
2023/12/25 10:39:03;;;;;;;6.13;2.47;;;10.30;99.90;;;;;;5033162;28;20462;-65
2023/12/25 10:41:33;;;;;;;8.38;2.22;;;10.30;99.90;;;;;;5032870;28;20033;-66
2023/12/25 10:44:01;;;;;;;4.25;2.55;;;10.30;99.90;;;;;;5037018;28;20022;-66
2023/12/25 10:46:30;;;;;;;9.07;2.60;;;10.30;99.90;;;;;;5037122;28;20025;-66
2023/12/25 10:48:56;;;;;;;8.10;2.70;;;10.30;99.90;;;;;;5036598;28;20546;-65
2023/12/25 10:51:40;;;;;;;4.18;2.30;;;10.30;99.90;;;;;;5037013;28;20029;-65
2023/12/25 10:54:09;;;;;;;8.50;2.45;;;10.30;99.90;;;;;;5037003;28;20501;-67
2023/12/25 10:56:36;;;;;;;11.65;2.80;;;10.30;99.90;;;;;;5036787;28;20033;-65
2023/12/25 10:59:12;;;;;;;3.90;2.67;;;10.30;99.90;;;;;;5036644;28;20081;-65
2023/12/25 11:01:39;;;;;;;4.50;2.17;;;10.30;99.90;;;;;;5036416;28;20037;-65
2023/12/25 11:04:05;;;;;;;4.18;2.28;;;10.30;99.90;;;;;;5035302;28;20475;-66
2023/12/25 11:06:31;;;;;;;4.95;2.40;;;10.20;99.90;;;;;;5036711;28;20036;-66
2023/12/25 11:08:58;;;;;;;5.10;2.53;;;10.30;99.90;;;;;;5036441;28;20108;-66
2023/12/25 11:11:24;;;;;;;4.25;2.13;;;10.30;99.90;;;;;;5036613;28;20030;-66
2023/12/25 11:13:49;;;;;;;7.00;2.58;;;10.30;99.90;;;;;;5036071;28;20072;-65
2023/12/25 11:16:16;;;;;;;7.35;3.15;;;10.30;99.90;;;;;;5036554;28;20029;-66
2023/12/25 11:18:42;;;;;;;3.60;2.10;;;10.30;99.90;;;;;;5036434;28;20083;-65
2023/12/25 11:21:11;;;;;;;4.60;2.40;;;10.20;99.90;;;;;;5035799;28;20053;-67
2023/12/25 11:23:40;;;;;;;5.35;2.38;;;10.20;99.90;;;;;;5036241;28;20025;-66
2023/12/25 11:26:07;;;;;;;4.63;2.58;;;10.20;99.90;;;;;;5036267;28;20139;-67
2023/12/25 11:28:37;;;;;;;8.30;2.38;;;10.20;99.90;;;;;;5036080;28;20036;-66
2023/12/25 11:31:04;;;;;;;6.28;2.65;;;10.20;99.90;;;;;;5036008;28;20112;-66
2023/12/25 11:33:41;;;;;;;4.93;2.08;;;10.20;99.90;;;;;;5036232;28;20115;-67
2023/12/25 11:36:13;;;;;;;6.30;2.58;;;10.20;99.90;;;;;;5036108;28;20034;-67
2023/12/25 11:38:41;;;;;;;7.50;2.85;;;10.20;99.90;;;;;;5035988;28;20487;-67
2023/12/25 11:41:14;;;;;;;9.02;3.80;;;10.20;99.90;;;;;;5035875;28;20171;-67
2023/12/25 11:43:40;;;;;;;8.57;2.72;;;10.20;99.90;;;;;;5034708;28;20026;-66
2023/12/25 11:46:14;;;;;;;5.82;2.58;;;10.20;99.90;;;;;;5035983;28;20453;-66
2023/12/25 11:48:41;;;;;;;9.20;2.97;;;10.20;99.90;;;;;;5035473;28;20025;-67
2023/12/25 11:51:29;;;;;;;7.97;2.38;;;10.20;99.90;;;;;;5035820;28;20036;-67
2023/12/25 11:53:57;;;;;;;5.97;2.50;;;10.10;99.90;;;;;;5035014;28;20499;-66
2023/12/25 11:56:23;;;;;;;3.85;2.33;;;10.10;99.90;;;;;;5035683;28;20025;-67
2023/12/25 11:58:51;;;;;;;6.53;2.90;;;10.10;99.90;;;;;;5035417;28;20033;-66
2023/12/25 12:01:19;;;;;;;6.55;2.67;;;10.10;99.90;;;;;;5035583;28;20037;-68
2023/12/25 12:03:47;;;;;;;3.97;2.70;;;10.10;99.90;;;;;;5035678;28;20028;-67
2023/12/25 12:06:14;;;;;;;6.55;3.20;;;10.10;99.90;;;;;;5035120;28;20021;-68
2023/12/25 12:08:41;;;;;;;4.45;2.45;;;10.10;99.90;;;;;;5035381;28;20026;-65
2023/12/25 12:11:09;;;;;;;3.78;2.65;;;10.10;99.90;;;;;;5035025;28;20033;-66
2023/12/25 12:13:36;;;;;;;4.38;2.83;;;10.10;99.90;;;;;;5035464;28;20030;-66
2023/12/25 12:16:03;;;;;;;5.47;2.60;;;10.10;99.90;;;;;;5035242;28;20029;-65
2023/12/25 12:18:29;;;;;;;4.68;2.53;;;10.10;99.90;;;;;;5035389;28;20472;-65
2023/12/25 12:20:56;;;;;;;2.97;2.08;;;10.10;99.90;;;;;;5034710;28;20048;-65
2023/12/25 12:23:21;;;;;;;3.83;2.35;;;10.00;99.90;;;;;;5035234;28;20116;-65
2023/12/25 12:25:47;;;;;;;5.57;2.33;;;10.00;99.90;;;;;;5035221;28;20091;-65
2023/12/25 12:28:16;;;;;;;4.50;2.30;;;10.10;99.90;;;;;;5034961;28;20455;-65
2023/12/25 12:30:42;;;;;;;7.03;2.25;;;10.10;99.90;;;;;;5035063;28;20469;-65
2023/12/25 12:33:10;;;;;;;2.97;2.35;;;10.10;99.90;;;;;;5034841;28;20117;-66
2023/12/25 12:35:35;;;;;;;2.75;2.30;;;10.10;99.90;;;;;;5035055;28;20041;-65
2023/12/25 12:38:03;;;;;;;3.47;2.58;;;10.10;99.90;;;;;;5034697;28;20502;-65
2023/12/25 12:40:28;;;;;;;2.47;1.80;;;10.00;99.90;;;;;;5034250;28;20083;-65